sensor_id;sensor_type;location;lat;lon;timestamp;P1;durP1;ratioP1;P2;durP2;ratioP2
74100;SDS011;62462;52.530;21.682;2023-07-13T00:01:19;14.25;;;8.13;;
74100;SDS011;62462;52.530;21.682;2023-07-13T00:04:24;11.82;;;9.13;;
74100;SDS011;62462;52.530;21.682;2023-07-13T00:07:31;12.18;;;9.25;;
74100;SDS011;62462;52.530;21.682;2023-07-13T00:10:31;9.85;;;7.88;;
74100;SDS011;62462;52.530;21.682;2023-07-13T00:13:43;10.60;;;8.90;;
74100;SDS011;62462;52.530;21.682;2023-07-13T00:16:58;11.63;;;8.25;;
74100;SDS011;62462;52.530;21.682;2023-07-13T00:20:14;10.10;;;8.30;;
74100;SDS011;62462;52.530;21.682;2023-07-13T00:23:29;11.40;;;9.55;;
74100;SDS011;62462;52.530;21.682;2023-07-13T00:26:55;10.02;;;8.55;;
74100;SDS011;62462;52.530;21.682;2023-07-13T00:30:09;13.25;;;8.55;;
74100;SDS011;62462;52.530;21.682;2023-07-13T00:33:12;11.77;;;8.25;;
74100;SDS011;62462;52.530;21.682;2023-07-13T00:36:26;9.15;;;7.97;;
74100;SDS011;62462;52.530;21.682;2023-07-13T00:39:38;9.90;;;8.18;;
74100;SDS011;62462;52.530;21.682;2023-07-13T00:42:37;11.60;;;8.80;;
74100;SDS011;62462;52.530;21.682;2023-07-13T00:49:37;9.75;;;8.30;;
74100;SDS011;62462;52.530;21.682;2023-07-13T00:52:23;8.60;;;7.70;;
74100;SDS011;62462;52.530;21.682;2023-07-13T00:55:13;11.95;;;8.75;;
74100;SDS011;62462;52.530;21.682;2023-07-13T00:58:18;10.95;;;8.80;;
74100;SDS011;62462;52.530;21.682;2023-07-13T01:04:03;7.38;;;6.20;;
74100;SDS011;62462;52.530;21.682;2023-07-13T01:07:25;8.88;;;7.75;;
74100;SDS011;62462;52.530;21.682;2023-07-13T01:13:56;8.73;;;7.82;;
74100;SDS011;62462;52.530;21.682;2023-07-13T01:17:16;8.60;;;7.70;;
74100;SDS011;62462;52.530;21.682;2023-07-13T01:20:50;8.07;;;7.28;;
74100;SDS011;62462;52.530;21.682;2023-07-13T01:23:49;8.70;;;7.80;;
74100;SDS011;62462;52.530;21.682;2023-07-13T01:26:34;10.82;;;8.60;;
74100;SDS011;62462;52.530;21.682;2023-07-13T01:29:35;9.43;;;8.07;;
74100;SDS011;62462;52.530;21.682;2023-07-13T01:32:15;8.95;;;8.05;;
74100;SDS011;62462;52.530;21.682;2023-07-13T01:35:02;8.13;;;6.10;;
74100;SDS011;62462;52.530;21.682;2023-07-13T01:40:42;12.30;;;9.60;;
74100;SDS011;62462;52.530;21.682;2023-07-13T01:43:25;11.32;;;9.32;;
74100;SDS011;62462;52.530;21.682;2023-07-13T01:46:11;11.57;;;9.52;;
74100;SDS011;62462;52.530;21.682;2023-07-13T01:49:04;16.30;;;10.20;;
74100;SDS011;62462;52.530;21.682;2023-07-13T01:51:45;10.17;;;8.23;;
74100;SDS011;62462;52.530;21.682;2023-07-13T01:54:42;11.20;;;8.88;;
74100;SDS011;62462;52.530;21.682;2023-07-13T01:57:51;12.00;;;9.43;;
74100;SDS011;62462;52.530;21.682;2023-07-13T02:00:47;14.50;;;10.10;;
74100;SDS011;62462;52.530;21.682;2023-07-13T02:03:54;10.73;;;8.75;;
74100;SDS011;62462;52.530;21.682;2023-07-13T02:06:46;14.55;;;10.32;;
74100;SDS011;62462;52.530;21.682;2023-07-13T02:09:55;13.63;;;10.48;;
74100;SDS011;62462;52.530;21.682;2023-07-13T02:12:53;10.60;;;9.07;;
74100;SDS011;62462;52.530;21.682;2023-07-13T02:16:12;10.80;;;8.90;;
74100;SDS011;62462;52.530;21.682;2023-07-13T02:19:08;8.65;;;7.72;;
74100;SDS011;62462;52.530;21.682;2023-07-13T02:21:59;8.27;;;7.40;;
74100;SDS011;62462;52.530;21.682;2023-07-13T02:24:26;9.50;;;8.55;;
74100;SDS011;62462;52.530;21.682;2023-07-13T02:26:56;11.80;;;9.20;;
74100;SDS011;62462;52.530;21.682;2023-07-13T02:29:23;11.07;;;8.75;;
74100;SDS011;62462;52.530;21.682;2023-07-13T02:31:50;11.68;;;8.90;;
74100;SDS011;62462;52.530;21.682;2023-07-13T02:34:17;11.32;;;8.80;;
74100;SDS011;62462;52.530;21.682;2023-07-13T02:36:44;11.23;;;8.52;;
74100;SDS011;62462;52.530;21.682;2023-07-13T02:39:14;12.60;;;8.82;;
74100;SDS011;62462;52.530;21.682;2023-07-13T02:41:41;11.02;;;8.10;;
74100;SDS011;62462;52.530;21.682;2023-07-13T02:44:08;9.57;;;8.30;;
74100;SDS011;62462;52.530;21.682;2023-07-13T02:46:36;9.57;;;8.52;;
74100;SDS011;62462;52.530;21.682;2023-07-13T02:49:06;10.57;;;8.65;;
74100;SDS011;62462;52.530;21.682;2023-07-13T02:51:33;9.65;;;8.65;;
74100;SDS011;62462;52.530;21.682;2023-07-13T02:54:01;10.25;;;8.00;;
74100;SDS011;62462;52.530;21.682;2023-07-13T02:56:28;9.45;;;8.45;;
74100;SDS011;62462;52.530;21.682;2023-07-13T02:58:56;9.38;;;8.38;;
74100;SDS011;62462;52.530;21.682;2023-07-13T03:01:23;10.70;;;9.60;;
74100;SDS011;62462;52.530;21.682;2023-07-13T03:03:51;9.00;;;7.88;;
74100;SDS011;62462;52.530;21.682;2023-07-13T03:06:18;10.50;;;9.40;;
74100;SDS011;62462;52.530;21.682;2023-07-13T03:08:47;10.93;;;9.60;;
74100;SDS011;62462;52.530;21.682;2023-07-13T03:11:15;10.48;;;9.38;;
74100;SDS011;62462;52.530;21.682;2023-07-13T03:13:44;13.88;;;9.35;;
74100;SDS011;62462;52.530;21.682;2023-07-13T03:16:11;15.23;;;11.32;;
74100;SDS011;62462;52.530;21.682;2023-07-13T03:18:41;15.65;;;11.70;;
74100;SDS011;62462;52.530;21.682;2023-07-13T03:21:08;17.48;;;12.90;;
74100;SDS011;62462;52.530;21.682;2023-07-13T03:23:35;15.20;;;11.43;;
74100;SDS011;62462;52.530;21.682;2023-07-13T03:26:06;19.70;;;12.10;;
74100;SDS011;62462;52.530;21.682;2023-07-13T03:28:38;16.70;;;12.32;;
74100;SDS011;62462;52.530;21.682;2023-07-13T03:31:07;27.55;;;11.73;;
74100;SDS011;62462;52.530;21.682;2023-07-13T03:33:36;21.42;;;12.80;;
74100;SDS011;62462;52.530;21.682;2023-07-13T03:36:04;17.35;;;12.38;;
74100;SDS011;62462;52.530;21.682;2023-07-13T03:38:32;17.60;;;12.43;;
74100;SDS011;62462;52.530;21.682;2023-07-13T03:40:59;17.42;;;12.18;;
74100;SDS011;62462;52.530;21.682;2023-07-13T03:43:26;18.95;;;11.88;;
74100;SDS011;62462;52.530;21.682;2023-07-13T03:45:54;20.00;;;13.10;;
74100;SDS011;62462;52.530;21.682;2023-07-13T03:48:21;17.52;;;11.75;;
74100;SDS011;62462;52.530;21.682;2023-07-13T03:50:48;19.40;;;12.45;;
74100;SDS011;62462;52.530;21.682;2023-07-13T03:53:15;16.80;;;11.70;;
74100;SDS011;62462;52.530;21.682;2023-07-13T03:55:42;14.98;;;11.95;;
74100;SDS011;62462;52.530;21.682;2023-07-13T04:00:54;15.73;;;11.55;;
74100;SDS011;62462;52.530;21.682;2023-07-13T04:03:22;17.27;;;12.77;;
74100;SDS011;62462;52.530;21.682;2023-07-13T04:05:50;16.83;;;12.68;;
74100;SDS011;62462;52.530;21.682;2023-07-13T04:08:17;15.25;;;12.45;;
74100;SDS011;62462;52.530;21.682;2023-07-13T04:10:44;15.57;;;12.05;;
74100;SDS011;62462;52.530;21.682;2023-07-13T04:13:11;16.23;;;12.77;;
74100;SDS011;62462;52.530;21.682;2023-07-13T04:15:38;13.95;;;11.95;;
74100;SDS011;62462;52.530;21.682;2023-07-13T04:18:05;15.23;;;11.57;;
74100;SDS011;62462;52.530;21.682;2023-07-13T04:20:33;16.50;;;12.82;;
74100;SDS011;62462;52.530;21.682;2023-07-13T04:23:02;16.45;;;12.48;;
74100;SDS011;62462;52.530;21.682;2023-07-13T04:25:31;16.45;;;12.88;;
74100;SDS011;62462;52.530;21.682;2023-07-13T04:28:00;14.77;;;12.32;;
74100;SDS011;62462;52.530;21.682;2023-07-13T04:30:28;14.85;;;11.88;;
74100;SDS011;62462;52.530;21.682;2023-07-13T04:32:55;16.33;;;12.70;;
74100;SDS011;62462;52.530;21.682;2023-07-13T04:35:23;15.80;;;12.00;;
74100;SDS011;62462;52.530;21.682;2023-07-13T04:37:51;15.27;;;12.90;;
74100;SDS011;62462;52.530;21.682;2023-07-13T04:40:19;18.95;;;13.60;;
74100;SDS011;62462;52.530;21.682;2023-07-13T04:42:46;15.75;;;13.23;;
74100;SDS011;62462;52.530;21.682;2023-07-13T04:45:14;17.52;;;13.82;;
74100;SDS011;62462;52.530;21.682;2023-07-13T04:47:41;19.70;;;12.95;;
74100;SDS011;62462;52.530;21.682;2023-07-13T04:50:08;14.98;;;12.48;;
74100;SDS011;62462;52.530;21.682;2023-07-13T04:52:36;16.92;;;12.43;;
74100;SDS011;62462;52.530;21.682;2023-07-13T04:55:07;15.30;;;13.70;;
74100;SDS011;62462;52.530;21.682;2023-07-13T04:57:34;14.63;;;11.80;;
74100;SDS011;62462;52.530;21.682;2023-07-13T05:00:01;15.10;;;12.23;;
74100;SDS011;62462;52.530;21.682;2023-07-13T05:02:31;15.77;;;12.93;;
74100;SDS011;62462;52.530;21.682;2023-07-13T05:04:59;15.35;;;12.10;;
74100;SDS011;62462;52.530;21.682;2023-07-13T05:07:29;16.52;;;13.93;;
74100;SDS011;62462;52.530;21.682;2023-07-13T05:09:58;18.98;;;13.73;;
74100;SDS011;62462;52.530;21.682;2023-07-13T05:12:26;16.88;;;12.48;;
74100;SDS011;62462;52.530;21.682;2023-07-13T05:14:53;13.55;;;11.40;;
74100;SDS011;62462;52.530;21.682;2023-07-13T05:17:19;13.07;;;10.57;;
74100;SDS011;62462;52.530;21.682;2023-07-13T05:19:45;12.30;;;9.60;;
74100;SDS011;62462;52.530;21.682;2023-07-13T05:22:10;18.00;;;13.30;;
74100;SDS011;62462;52.530;21.682;2023-07-13T05:24:36;12.48;;;10.98;;
74100;SDS011;62462;52.530;21.682;2023-07-13T05:27:02;16.02;;;11.63;;
74100;SDS011;62462;52.530;21.682;2023-07-13T05:29:28;18.48;;;11.88;;
74100;SDS011;62462;52.530;21.682;2023-07-13T05:31:54;14.10;;;12.00;;
74100;SDS011;62462;52.530;21.682;2023-07-13T05:34:19;13.02;;;11.05;;
74100;SDS011;62462;52.530;21.682;2023-07-13T05:36:45;11.15;;;9.15;;
74100;SDS011;62462;52.530;21.682;2023-07-13T05:39:11;9.70;;;8.50;;
74100;SDS011;62462;52.530;21.682;2023-07-13T05:41:37;8.80;;;7.00;;
74100;SDS011;62462;52.530;21.682;2023-07-13T05:44:03;8.00;;;7.20;;
74100;SDS011;62462;52.530;21.682;2023-07-13T05:46:29;8.48;;;7.20;;
74100;SDS011;62462;52.530;21.682;2023-07-13T05:48:54;8.57;;;7.00;;
74100;SDS011;62462;52.530;21.682;2023-07-13T05:51:20;11.82;;;7.50;;
74100;SDS011;62462;52.530;21.682;2023-07-13T05:53:46;10.77;;;7.82;;
74100;SDS011;62462;52.530;21.682;2023-07-13T05:56:11;10.55;;;8.13;;
74100;SDS011;62462;52.530;21.682;2023-07-13T05:58:37;12.73;;;7.10;;
74100;SDS011;62462;52.530;21.682;2023-07-13T06:01:08;13.15;;;8.38;;
74100;SDS011;62462;52.530;21.682;2023-07-13T06:03:36;11.33;;;8.80;;
74100;SDS011;62462;52.530;21.682;2023-07-13T06:06:03;10.45;;;8.57;;
74100;SDS011;62462;52.530;21.682;2023-07-13T06:08:30;10.27;;;7.65;;
74100;SDS011;62462;52.530;21.682;2023-07-13T06:11:29;11.00;;;8.32;;
74100;SDS011;62462;52.530;21.682;2023-07-13T06:13:50;9.37;;;8.03;;
74100;SDS011;62462;52.530;21.682;2023-07-13T06:16:16;8.77;;;6.88;;
74100;SDS011;62462;52.530;21.682;2023-07-13T06:18:42;8.85;;;6.95;;
74100;SDS011;62462;52.530;21.682;2023-07-13T06:21:16;10.40;;;7.00;;
74100;SDS011;62462;52.530;21.682;2023-07-13T06:23:43;7.05;;;6.35;;
74100;SDS011;62462;52.530;21.682;2023-07-13T06:26:10;7.82;;;6.38;;
74100;SDS011;62462;52.530;21.682;2023-07-13T06:28:36;6.70;;;5.30;;
74100;SDS011;62462;52.530;21.682;2023-07-13T06:31:04;6.68;;;5.32;;
74100;SDS011;62462;52.530;21.682;2023-07-13T06:33:31;6.30;;;5.50;;
74100;SDS011;62462;52.530;21.682;2023-07-13T06:35:58;7.53;;;5.60;;
74100;SDS011;62462;52.530;21.682;2023-07-13T06:38:23;5.70;;;4.93;;
74100;SDS011;62462;52.530;21.682;2023-07-13T06:40:49;7.40;;;5.47;;
74100;SDS011;62462;52.530;21.682;2023-07-13T06:43:15;6.80;;;5.18;;
74100;SDS011;62462;52.530;21.682;2023-07-13T06:45:43;5.88;;;4.15;;
74100;SDS011;62462;52.530;21.682;2023-07-13T06:48:12;6.38;;;4.63;;
74100;SDS011;62462;52.530;21.682;2023-07-13T06:50:38;4.95;;;3.97;;
74100;SDS011;62462;52.530;21.682;2023-07-13T06:53:04;4.88;;;4.35;;
74100;SDS011;62462;52.530;21.682;2023-07-13T06:55:30;4.90;;;4.35;;
74100;SDS011;62462;52.530;21.682;2023-07-13T06:57:55;6.10;;;5.43;;
74100;SDS011;62462;52.530;21.682;2023-07-13T07:00:22;5.97;;;4.65;;
74100;SDS011;62462;52.530;21.682;2023-07-13T07:02:48;5.55;;;4.25;;
74100;SDS011;62462;52.530;21.682;2023-07-13T07:05:13;4.50;;;3.90;;
74100;SDS011;62462;52.530;21.682;2023-07-13T07:07:39;18.10;;;7.97;;
74100;SDS011;62462;52.530;21.682;2023-07-13T07:10:05;17.85;;;9.30;;
74100;SDS011;62462;52.530;21.682;2023-07-13T07:12:31;7.60;;;5.82;;
74100;SDS011;62462;52.530;21.682;2023-07-13T07:14:57;5.07;;;4.47;;
74100;SDS011;62462;52.530;21.682;2023-07-13T07:17:22;6.00;;;4.90;;
74100;SDS011;62462;52.530;21.682;2023-07-13T07:19:48;5.95;;;4.35;;
74100;SDS011;62462;52.530;21.682;2023-07-13T07:22:14;5.93;;;4.50;;
74100;SDS011;62462;52.530;21.682;2023-07-13T07:24:39;5.55;;;4.38;;
74100;SDS011;62462;52.530;21.682;2023-07-13T07:27:05;4.22;;;3.80;;
74100;SDS011;62462;52.530;21.682;2023-07-13T07:29:31;4.10;;;3.60;;
74100;SDS011;62462;52.530;21.682;2023-07-13T07:31:58;5.22;;;4.03;;
74100;SDS011;62462;52.530;21.682;2023-07-13T07:34:24;4.15;;;3.75;;
74100;SDS011;62462;52.530;21.682;2023-07-13T07:36:50;4.30;;;3.83;;
74100;SDS011;62462;52.530;21.682;2023-07-13T07:39:16;6.35;;;3.90;;
74100;SDS011;62462;52.530;21.682;2023-07-13T07:41:41;4.20;;;3.50;;
74100;SDS011;62462;52.530;21.682;2023-07-13T07:44:07;4.50;;;4.00;;
74100;SDS011;62462;52.530;21.682;2023-07-13T07:46:35;4.70;;;3.85;;
74100;SDS011;62462;52.530;21.682;2023-07-13T07:49:01;5.30;;;3.60;;
74100;SDS011;62462;52.530;21.682;2023-07-13T07:51:27;4.15;;;3.33;;
74100;SDS011;62462;52.530;21.682;2023-07-13T07:53:53;3.47;;;3.17;;
74100;SDS011;62462;52.530;21.682;2023-07-13T07:56:19;5.57;;;3.40;;
74100;SDS011;62462;52.530;21.682;2023-07-13T07:58:45;3.20;;;2.90;;
74100;SDS011;62462;52.530;21.682;2023-07-13T08:01:10;4.40;;;3.15;;
74100;SDS011;62462;52.530;21.682;2023-07-13T08:03:36;3.78;;;3.40;;
74100;SDS011;62462;52.530;21.682;2023-07-13T08:06:02;6.75;;;2.80;;
74100;SDS011;62462;52.530;21.682;2023-07-13T08:08:28;3.08;;;2.45;;
74100;SDS011;62462;52.530;21.682;2023-07-13T08:10:53;5.25;;;2.03;;
74100;SDS011;62462;52.530;21.682;2023-07-13T08:13:19;2.30;;;2.10;;
74100;SDS011;62462;52.530;21.682;2023-07-13T08:15:45;2.83;;;2.40;;
74100;SDS011;62462;52.530;21.682;2023-07-13T08:18:12;2.55;;;2.10;;
74100;SDS011;62462;52.530;21.682;2023-07-13T08:20:38;2.53;;;2.30;;
74100;SDS011;62462;52.530;21.682;2023-07-13T08:23:04;3.38;;;2.75;;
74100;SDS011;62462;52.530;21.682;2023-07-13T08:25:31;7.32;;;3.17;;
74100;SDS011;62462;52.530;21.682;2023-07-13T08:27:57;3.55;;;3.20;;
74100;SDS011;62462;52.530;21.682;2023-07-13T08:30:23;3.75;;;2.65;;
74100;SDS011;62462;52.530;21.682;2023-07-13T08:32:48;4.00;;;3.15;;
74100;SDS011;62462;52.530;21.682;2023-07-13T08:35:14;4.18;;;3.60;;
74100;SDS011;62462;52.530;21.682;2023-07-13T08:37:41;4.30;;;3.67;;
74100;SDS011;62462;52.530;21.682;2023-07-13T08:40:08;4.15;;;3.75;;
74100;SDS011;62462;52.530;21.682;2023-07-13T08:48:11;5.60;;;3.83;;
74100;SDS011;62462;52.530;21.682;2023-07-13T08:51:44;4.28;;;3.75;;
74100;SDS011;62462;52.530;21.682;2023-07-13T08:53:47;5.25;;;3.95;;
74100;SDS011;62462;52.530;21.682;2023-07-13T08:56:19;3.97;;;3.50;;
74100;SDS011;62462;52.530;21.682;2023-07-13T08:58:48;4.63;;;3.78;;
74100;SDS011;62462;52.530;21.682;2023-07-13T09:04:20;4.88;;;3.90;;
74100;SDS011;62462;52.530;21.682;2023-07-13T09:07:07;4.20;;;3.67;;
74100;SDS011;62462;52.530;21.682;2023-07-13T09:14:48;4.97;;;3.42;;
74100;SDS011;62462;52.530;21.682;2023-07-13T09:20:21;4.25;;;3.58;;
74100;SDS011;62462;52.530;21.682;2023-07-13T09:22:52;4.70;;;4.00;;
74100;SDS011;62462;52.530;21.682;2023-07-13T09:25:27;4.30;;;3.90;;
74100;SDS011;62462;52.530;21.682;2023-07-13T09:28:00;3.78;;;3.38;;
74100;SDS011;62462;52.530;21.682;2023-07-13T09:30:51;3.80;;;3.40;;
74100;SDS011;62462;52.530;21.682;2023-07-13T09:33:28;3.90;;;3.50;;
74100;SDS011;62462;52.530;21.682;2023-07-13T09:35:58;3.70;;;3.40;;
74100;SDS011;62462;52.530;21.682;2023-07-13T09:38:25;4.43;;;3.10;;
74100;SDS011;62462;52.530;21.682;2023-07-13T09:41:01;3.47;;;3.08;;
74100;SDS011;62462;52.530;21.682;2023-07-13T09:43:35;4.05;;;3.15;;
74100;SDS011;62462;52.530;21.682;2023-07-13T09:46:01;3.85;;;2.78;;
74100;SDS011;62462;52.530;21.682;2023-07-13T09:48:33;3.72;;;3.13;;
74100;SDS011;62462;52.530;21.682;2023-07-13T09:51:06;3.83;;;2.70;;
74100;SDS011;62462;52.530;21.682;2023-07-13T09:53:39;3.45;;;2.60;;
74100;SDS011;62462;52.530;21.682;2023-07-13T09:56:17;3.10;;;2.80;;
74100;SDS011;62462;52.530;21.682;2023-07-13T09:58:48;3.83;;;2.83;;
74100;SDS011;62462;52.530;21.682;2023-07-13T10:01:14;6.72;;;2.78;;
74100;SDS011;62462;52.530;21.682;2023-07-13T10:03:43;4.13;;;2.60;;
74100;SDS011;62462;52.530;21.682;2023-07-13T10:06:19;3.13;;;2.45;;
74100;SDS011;62462;52.530;21.682;2023-07-13T10:08:47;3.92;;;2.20;;
74100;SDS011;62462;52.530;21.682;2023-07-13T10:11:20;2.72;;;1.95;;
74100;SDS011;62462;52.530;21.682;2023-07-13T10:16:30;2.80;;;2.05;;
74100;SDS011;62462;52.530;21.682;2023-07-13T10:18:58;4.53;;;2.15;;
74100;SDS011;62462;52.530;21.682;2023-07-13T10:21:32;3.45;;;2.10;;
74100;SDS011;62462;52.530;21.682;2023-07-13T10:24:09;3.53;;;2.03;;
74100;SDS011;62462;52.530;21.682;2023-07-13T10:26:46;3.83;;;2.28;;
74100;SDS011;62462;52.530;21.682;2023-07-13T10:29:38;2.88;;;2.22;;
74100;SDS011;62462;52.530;21.682;2023-07-13T10:32:09;2.58;;;2.22;;
74100;SDS011;62462;52.530;21.682;2023-07-13T10:34:40;5.88;;;2.20;;
74100;SDS011;62462;52.530;21.682;2023-07-13T10:37:14;4.00;;;2.30;;
74100;SDS011;62462;52.530;21.682;2023-07-13T10:39:47;4.10;;;2.53;;
74100;SDS011;62462;52.530;21.682;2023-07-13T10:42:17;2.80;;;2.50;;
74100;SDS011;62462;52.530;21.682;2023-07-13T10:44:54;3.75;;;2.08;;
74100;SDS011;62462;52.530;21.682;2023-07-13T10:47:19;2.85;;;2.45;;
74100;SDS011;62462;52.530;21.682;2023-07-13T10:49:45;2.55;;;2.28;;
74100;SDS011;62462;52.530;21.682;2023-07-13T10:55:10;2.90;;;2.60;;
74100;SDS011;62462;52.530;21.682;2023-07-13T10:58:01;3.05;;;2.38;;
74100;SDS011;62462;52.530;21.682;2023-07-13T11:00:30;2.28;;;2.08;;
74100;SDS011;62462;52.530;21.682;2023-07-13T11:02:58;2.42;;;2.22;;
74100;SDS011;62462;52.530;21.682;2023-07-13T11:05:30;2.30;;;2.10;;
74100;SDS011;62462;52.530;21.682;2023-07-13T11:08:13;2.85;;;2.35;;
74100;SDS011;62462;52.530;21.682;2023-07-13T11:10:58;2.40;;;2.03;;
74100;SDS011;62462;52.530;21.682;2023-07-13T11:18:47;2.20;;;1.77;;
74100;SDS011;62462;52.530;21.682;2023-07-13T11:21:19;2.85;;;1.60;;
74100;SDS011;62462;52.530;21.682;2023-07-13T11:23:53;2.30;;;1.90;;
74100;SDS011;62462;52.530;21.682;2023-07-13T11:29:46;2.42;;;2.20;;
74100;SDS011;62462;52.530;21.682;2023-07-13T11:32:24;2.42;;;2.05;;
74100;SDS011;62462;52.530;21.682;2023-07-13T11:34:55;2.28;;;2.00;;
74100;SDS011;62462;52.530;21.682;2023-07-13T11:37:21;2.30;;;2.03;;
74100;SDS011;62462;52.530;21.682;2023-07-13T11:39:48;2.92;;;2.35;;
74100;SDS011;62462;52.530;21.682;2023-07-13T11:42:17;5.93;;;3.00;;
74100;SDS011;62462;52.530;21.682;2023-07-13T11:44:49;3.00;;;2.70;;
74100;SDS011;62462;52.530;21.682;2023-07-13T11:47:20;4.55;;;3.00;;
74100;SDS011;62462;52.530;21.682;2023-07-13T11:49:52;3.40;;;3.00;;
74100;SDS011;62462;52.530;21.682;2023-07-13T11:52:27;3.22;;;2.55;;
74100;SDS011;62462;52.530;21.682;2023-07-13T11:55:02;3.40;;;2.90;;
74100;SDS011;62462;52.530;21.682;2023-07-13T11:57:40;3.47;;;3.08;;
74100;SDS011;62462;52.530;21.682;2023-07-13T12:00:12;4.05;;;2.83;;
74100;SDS011;62462;52.530;21.682;2023-07-13T12:02:51;5.30;;;2.90;;
74100;SDS011;62462;52.530;21.682;2023-07-13T12:05:19;3.40;;;2.78;;
74100;SDS011;62462;52.530;21.682;2023-07-13T12:07:46;4.05;;;2.95;;
74100;SDS011;62462;52.530;21.682;2023-07-13T12:10:23;3.25;;;2.95;;
74100;SDS011;62462;52.530;21.682;2023-07-13T12:13:01;3.33;;;2.95;;
74100;SDS011;62462;52.530;21.682;2023-07-13T12:15:40;3.33;;;2.90;;
74100;SDS011;62462;52.530;21.682;2023-07-13T12:18:12;3.67;;;2.80;;
74100;SDS011;62462;52.530;21.682;2023-07-13T12:20:40;3.13;;;2.80;;
74100;SDS011;62462;52.530;21.682;2023-07-13T12:23:06;4.47;;;2.80;;
74100;SDS011;62462;52.530;21.682;2023-07-13T12:25:50;4.53;;;2.40;;
74100;SDS011;62462;52.530;21.682;2023-07-13T12:28:30;2.80;;;2.40;;
74100;SDS011;62462;52.530;21.682;2023-07-13T12:31:00;3.72;;;2.40;;
74100;SDS011;62462;52.530;21.682;2023-07-13T12:33:30;3.10;;;2.60;;
74100;SDS011;62462;52.530;21.682;2023-07-13T12:35:57;4.10;;;2.83;;
74100;SDS011;62462;52.530;21.682;2023-07-13T12:38:27;4.25;;;2.85;;
74100;SDS011;62462;52.530;21.682;2023-07-13T12:40:53;2.95;;;2.65;;
74100;SDS011;62462;52.530;21.682;2023-07-13T12:43:22;4.47;;;2.67;;
74100;SDS011;62462;52.530;21.682;2023-07-13T12:48:26;4.07;;;2.40;;
74100;SDS011;62462;52.530;21.682;2023-07-13T12:50:52;3.38;;;2.97;;
74100;SDS011;62462;52.530;21.682;2023-07-13T12:53:23;3.38;;;2.90;;
74100;SDS011;62462;52.530;21.682;2023-07-13T12:55:57;4.75;;;2.97;;
74100;SDS011;62462;52.530;21.682;2023-07-13T13:01:04;3.30;;;2.70;;
74100;SDS011;62462;52.530;21.682;2023-07-13T13:03:34;3.13;;;2.60;;
74100;SDS011;62462;52.530;21.682;2023-07-13T13:08:40;4.00;;;2.80;;
74100;SDS011;62462;52.530;21.682;2023-07-13T13:11:08;4.60;;;2.90;;
74100;SDS011;62462;52.530;21.682;2023-07-13T13:13:34;3.60;;;2.70;;
74100;SDS011;62462;52.530;21.682;2023-07-13T13:19:40;3.45;;;2.92;;
74100;SDS011;62462;52.530;21.682;2023-07-13T13:21:53;4.03;;;2.53;;
74100;SDS011;62462;52.530;21.682;2023-07-13T13:24:22;4.43;;;3.00;;
74100;SDS011;62462;52.530;21.682;2023-07-13T13:26:50;2.67;;;2.47;;
74100;SDS011;62462;52.530;21.682;2023-07-13T13:29:17;4.07;;;2.90;;
74100;SDS011;62462;52.530;21.682;2023-07-13T13:31:45;4.05;;;2.63;;
74100;SDS011;62462;52.530;21.682;2023-07-13T13:34:11;3.78;;;2.90;;
74100;SDS011;62462;52.530;21.682;2023-07-13T13:36:42;3.30;;;2.95;;
74100;SDS011;62462;52.530;21.682;2023-07-13T13:39:19;3.08;;;2.78;;
74100;SDS011;62462;52.530;21.682;2023-07-13T13:41:50;3.67;;;3.00;;
74100;SDS011;62462;52.530;21.682;2023-07-13T13:44:16;4.97;;;2.65;;
74100;SDS011;62462;52.530;21.682;2023-07-13T13:46:43;4.07;;;2.80;;
74100;SDS011;62462;52.530;21.682;2023-07-13T13:49:16;3.95;;;2.92;;
74100;SDS011;62462;52.530;21.682;2023-07-13T13:51:44;4.40;;;3.50;;
74100;SDS011;62462;52.530;21.682;2023-07-13T13:54:14;4.15;;;3.00;;
74100;SDS011;62462;52.530;21.682;2023-07-13T13:56:45;3.30;;;3.00;;
74100;SDS011;62462;52.530;21.682;2023-07-13T13:59:12;14.15;;;7.97;;
74100;SDS011;62462;52.530;21.682;2023-07-13T14:01:39;4.90;;;3.83;;
74100;SDS011;62462;52.530;21.682;2023-07-13T14:04:08;3.78;;;3.20;;
74100;SDS011;62462;52.530;21.682;2023-07-13T14:06:42;4.72;;;3.80;;
74100;SDS011;62462;52.530;21.682;2023-07-13T14:09:12;4.55;;;3.63;;
74100;SDS011;62462;52.530;21.682;2023-07-13T14:11:40;4.32;;;3.63;;
74100;SDS011;62462;52.530;21.682;2023-07-13T14:14:08;5.88;;;3.67;;
74100;SDS011;62462;52.530;21.682;2023-07-13T14:16:39;4.15;;;3.55;;
74100;SDS011;62462;52.530;21.682;2023-07-13T14:19:07;4.22;;;3.45;;
74100;SDS011;62462;52.530;21.682;2023-07-13T14:21:36;4.57;;;3.72;;
74100;SDS011;62462;52.530;21.682;2023-07-13T14:24:02;6.35;;;3.85;;
74100;SDS011;62462;52.530;21.682;2023-07-13T14:26:29;4.47;;;3.90;;
74100;SDS011;62462;52.530;21.682;2023-07-13T14:29:00;4.82;;;3.95;;
74100;SDS011;62462;52.530;21.682;2023-07-13T14:31:27;5.05;;;3.90;;
74100;SDS011;62462;52.530;21.682;2023-07-13T14:33:56;5.07;;;3.97;;
74100;SDS011;62462;52.530;21.682;2023-07-13T14:36:30;6.80;;;4.03;;
74100;SDS011;62462;52.530;21.682;2023-07-13T14:38:59;5.32;;;3.95;;
74100;SDS011;62462;52.530;21.682;2023-07-13T14:41:31;3.70;;;3.40;;
74100;SDS011;62462;52.530;21.682;2023-07-13T14:43:57;4.53;;;3.90;;
74100;SDS011;62462;52.530;21.682;2023-07-13T14:46:30;5.03;;;3.88;;
74100;SDS011;62462;52.530;21.682;2023-07-13T14:49:00;6.05;;;4.05;;
74100;SDS011;62462;52.530;21.682;2023-07-13T14:51:31;5.25;;;3.92;;
74100;SDS011;62462;52.530;21.682;2023-07-13T14:53:58;5.72;;;4.50;;
74100;SDS011;62462;52.530;21.682;2023-07-13T14:56:27;6.25;;;4.05;;
74100;SDS011;62462;52.530;21.682;2023-07-13T14:58:53;4.38;;;3.58;;
74100;SDS011;62462;52.530;21.682;2023-07-13T15:01:18;4.20;;;3.80;;
74100;SDS011;62462;52.530;21.682;2023-07-13T15:03:47;4.28;;;3.88;;
74100;SDS011;62462;52.530;21.682;2023-07-13T15:06:15;5.47;;;4.30;;
74100;SDS011;62462;52.530;21.682;2023-07-13T15:08:41;4.32;;;3.65;;
74100;SDS011;62462;52.530;21.682;2023-07-13T15:11:09;5.38;;;4.03;;
74100;SDS011;62462;52.530;21.682;2023-07-13T15:13:38;5.47;;;3.75;;
74100;SDS011;62462;52.530;21.682;2023-07-13T15:16:38;6.18;;;4.07;;
74100;SDS011;62462;52.530;21.682;2023-07-13T15:18:58;4.95;;;3.97;;
74100;SDS011;62462;52.530;21.682;2023-07-13T15:21:24;7.60;;;4.15;;
74100;SDS011;62462;52.530;21.682;2023-07-13T15:23:50;5.00;;;3.85;;
74100;SDS011;62462;52.530;21.682;2023-07-13T15:26:16;7.20;;;4.38;;
74100;SDS011;62462;52.530;21.682;2023-07-13T15:28:44;11.60;;;3.92;;
74100;SDS011;62462;52.530;21.682;2023-07-13T15:31:20;22.23;;;10.82;;
74100;SDS011;62462;52.530;21.682;2023-07-13T15:33:49;11.23;;;5.50;;
74100;SDS011;62462;52.530;21.682;2023-07-13T15:36:20;10.95;;;6.40;;
74100;SDS011;62462;52.530;21.682;2023-07-13T15:38:47;4.50;;;4.00;;
74100;SDS011;62462;52.530;21.682;2023-07-13T15:41:25;4.18;;;3.78;;
74100;SDS011;62462;52.530;21.682;2023-07-13T15:43:56;4.18;;;3.60;;
74100;SDS011;62462;52.530;21.682;2023-07-13T15:46:23;5.60;;;3.42;;
74100;SDS011;62462;52.530;21.682;2023-07-13T15:48:50;5.22;;;4.13;;
74100;SDS011;62462;52.530;21.682;2023-07-13T15:51:20;4.55;;;3.60;;
74100;SDS011;62462;52.530;21.682;2023-07-13T15:53:56;8.13;;;4.20;;
74100;SDS011;62462;52.530;21.682;2023-07-13T15:56:25;6.47;;;4.57;;
74100;SDS011;62462;52.530;21.682;2023-07-13T15:58:52;5.88;;;4.07;;
74100;SDS011;62462;52.530;21.682;2023-07-13T16:01:20;5.90;;;4.10;;